DHK22D EGNX-LQSA
Flight info
| Callsign | DHK22D |
|---|---|
| Flight time | N/A |
| Altitude | 33000 |
| Route | DTY UM605 SILVA DCT BIG L607 KONAN UL607 SPI/N0446F230 Q50 ARCKY L607 ROPUV/N0481F330 L607 UBIDU L984 ASKIK/N0446F230 Z74 KOSEK L603 TAKUT P605 DKB Z818 ELVAG Y161 RIDAR DCT GOMIG DCT GOLVA/N0380F110 L604 ZAG L187 KOMAR L608 BOSNA |
| Aircraft | B77L/H-SDE1E2E3FGHIJ2J3J4J5M1RWXY/LB1D1 |
Departure
| Time | 2026-05-06 14:58 |
|---|---|
| Airport | East Midlands Airport (EGNX) |
Arrival
| Time | N/A |
|---|---|
| Airport | Sarajevo International Airport (LQSA) |
| Time | Latitude | Longitude | Altitude | Speed | Heading |
|---|---|---|---|---|---|
| 2026-05-06 14:42 | 52.82740 | -1.35463 | 310 ft | 0 kts | 179° |
| 2026-05-06 14:50 | 52.82746 | -1.35463 | 310 ft | 2 kts | 179° |
| 2026-05-06 14:50 | 52.82761 | -1.35464 | 311 ft | 2 kts | 179° |
| 2026-05-06 14:50 | 52.82775 | -1.35464 | 311 ft | 0 kts | 179° |
| 2026-05-06 14:50 | 52.82786 | -1.35465 | 311 ft | 2 kts | 167° |
| 2026-05-06 14:51 | 52.82799 | -1.35474 | 312 ft | 2 kts | 142° |
| 2026-05-06 14:51 | 52.82809 | -1.35492 | 312 ft | 2 kts | 120° |
| 2026-05-06 14:51 | 52.82814 | -1.35515 | 313 ft | 2 kts | 97° |
| 2026-05-06 14:51 | 52.82814 | -1.35529 | 313 ft | 1 kts | 87° |
| 2026-05-06 14:52 | 52.82814 | -1.35531 | 313 ft | 0 kts | 87° |
| 2026-05-06 14:55 | 52.82814 | -1.35526 | 312 ft | 2 kts | 87° |
| 2026-05-06 14:56 | 52.82816 | -1.35464 | 313 ft | 7 kts | 87° |
| 2026-05-06 14:56 | 52.82820 | -1.35356 | 313 ft | 11 kts | 87° |
| 2026-05-06 14:56 | 52.82859 | -1.35252 | 314 ft | 12 kts | 22° |
| 2026-05-06 14:56 | 52.82895 | -1.35127 | 315 ft | 14 kts | 86° |
| 2026-05-06 14:57 | 52.82898 | -1.34977 | 315 ft | 11 kts | 72° |
| 2026-05-06 14:57 | 52.82954 | -1.34930 | 317 ft | 9 kts | 358° |
| 2026-05-06 14:57 | 52.83032 | -1.34937 | 318 ft | 12 kts | 2° |
| 2026-05-06 14:57 | 52.83059 | -1.34905 | 320 ft | 3 kts | 74° |
| 2026-05-06 14:58 | 52.83065 | -1.34771 | 320 ft | 33 kts | 88° |
| 2026-05-06 14:58 | 52.83083 | -1.33841 | 315 ft | 127 kts | 88° |
| 2026-05-06 14:58 | 52.83123 | -1.31979 | 510 ft | 190 kts | 86° |
| 2026-05-06 14:58 | 52.83156 | -1.29815 | 1705 ft | 190 kts | 91° |
| 2026-05-06 14:59 | 52.83006 | -1.27774 | 2627 ft | 186 kts | 95° |
| 2026-05-06 14:59 | 52.82846 | -1.25575 | 3094 ft | 203 kts | 93° |
| 2026-05-06 14:59 | 52.82540 | -1.23199 | 3598 ft | 224 kts | 111° |
| 2026-05-06 14:59 | 52.81601 | -1.21021 | 4115 ft | 245 kts | 133° |
| 2026-05-06 15:00 | 52.80350 | -1.19100 | 4835 ft | 255 kts | 134° |
| 2026-05-06 15:00 | 52.79037 | -1.17011 | 5577 ft | 267 kts | 140° |
| 2026-05-06 15:00 | 52.77372 | -1.15620 | 6433 ft | 275 kts | 166° |
| 2026-05-06 15:00 | 52.75457 | -1.15562 | 7295 ft | 281 kts | 193° |
| 2026-05-06 15:01 | 52.73711 | -1.16902 | 8090 ft | 284 kts | 219° |
| 2026-05-06 15:01 | 52.72205 | -1.19006 | 8800 ft | 288 kts | 223° |
| 2026-05-06 15:01 | 52.70679 | -1.21154 | 8954 ft | 289 kts | 221° |
| 2026-05-06 15:01 | 52.69124 | -1.23236 | 8966 ft | 288 kts | 220° |
| 2026-05-06 15:02 | 52.67570 | -1.25273 | 8966 ft | 287 kts | 220° |
| 2026-05-06 15:02 | 52.65993 | -1.27325 | 8966 ft | 287 kts | 220° |
| 2026-05-06 15:02 | 52.64396 | -1.29400 | 9025 ft | 294 kts | 220° |
| 2026-05-06 15:02 | 52.62794 | -1.31478 | 9920 ft | 294 kts | 220° |
| 2026-05-06 15:03 | 52.61205 | -1.33538 | 10783 ft | 297 kts | 220° |
| 2026-05-06 15:03 | 52.59528 | -1.35637 | 11243 ft | 315 kts | 215° |
| 2026-05-06 15:03 | 52.57530 | -1.37453 | 11728 ft | 333 kts | 206° |
| 2026-05-06 15:03 | 52.55292 | -1.38746 | 12231 ft | 351 kts | 196° |
| 2026-05-06 15:04 | 52.52868 | -1.39407 | 12752 ft | 367 kts | 186° |
| 2026-05-06 15:04 | 52.50232 | -1.39323 | 13275 ft | 384 kts | 174° |
| 2026-05-06 15:04 | 52.47567 | -1.38374 | 13814 ft | 400 kts | 163° |
| 2026-05-06 15:04 | 52.44992 | -1.36502 | 14549 ft | 409 kts | 151° |
| 2026-05-06 15:05 | 52.42653 | -1.33838 | 15415 ft | 414 kts | 140° |
| 2026-05-06 15:05 | 52.40475 | -1.30731 | 16286 ft | 418 kts | 141° |
| 2026-05-06 15:05 | 52.38156 | -1.27913 | 17105 ft | 423 kts | 147° |
| 2026-05-06 15:05 | 52.35655 | -1.25321 | 17899 ft | 428 kts | 150° |
| 2026-05-06 15:06 | 52.33023 | -1.22919 | 18691 ft | 432 kts | 153° |
| 2026-05-06 15:06 | 52.30376 | -1.20708 | 19470 ft | 436 kts | 155° |
| 2026-05-06 15:06 | 52.27609 | -1.18539 | 20258 ft | 440 kts | 156° |
| 2026-05-06 15:06 | 52.24823 | -1.16457 | 21004 ft | 444 kts | 157° |
| 2026-05-06 15:07 | 52.21994 | -1.14408 | 21725 ft | 448 kts | 158° |